Terminal Aerodrome Forecast
Issued by NWS

Home | Current Version | Previous Version | Text Only | Print | Product List | Glossary On
Versions: 1 2 3 4 5 6 7 8 9 10 11 12
000
FTUS46 KPDT 301700
TAFALW
TAF
KALW 301740Z 3018/3118 23007KT P6SM FEW150 SCT200
     FM302000 25008KT P6SM FEW250
     FM310300 13006KT P6SM FEW120
     FM310900 16007KT P6SM SCT130
     FM311300 VRB05KT P6SM SCT130 BKN150=

USA.gov is the U.S. government's official web portal to all federal, state and local government web resources and services.